createdAt,value
2023-04-09T00:02:17.171Z,12.83
2023-04-09T00:04:45.235Z,26.17
2023-04-09T00:07:13.257Z,23.10
2023-04-09T00:09:41.220Z,13.20
2023-04-09T00:12:10.608Z,30.43
2023-04-09T00:14:38.643Z,14.63
2023-04-09T00:17:06.461Z,30.10
2023-04-09T00:19:34.412Z,16.40
2023-04-09T00:22:02.365Z,14.83
2023-04-09T00:24:30.300Z,25.77
2023-04-09T00:26:58.300Z,68.43
2023-04-09T00:29:27.679Z,14.67
2023-04-09T00:31:55.934Z,12.17
2023-04-09T00:34:23.958Z,14.23
2023-04-09T00:36:51.847Z,10.80
2023-04-09T00:39:19.793Z,25.00
2023-04-09T00:41:47.706Z,19.70
2023-04-09T00:44:15.705Z,11.97
2023-04-09T00:46:44.948Z,14.50
2023-04-09T00:49:13.046Z,17.20
2023-04-09T00:51:41.261Z,28.43
2023-04-09T00:54:09.224Z,17.60
2023-04-09T00:56:37.945Z,15.17
2023-04-09T00:59:06.169Z,10.57
2023-04-09T01:01:34.250Z,8.87
2023-04-09T01:04:03.874Z,14.20
2023-04-09T01:06:38.291Z,14.40
2023-04-09T01:09:10.483Z,14.33
2023-04-09T01:11:44.070Z,14.07
2023-04-09T01:14:21.621Z,14.73
2023-04-09T01:16:56.654Z,20.50
2023-04-09T01:19:42.187Z,29.60
2023-04-09T01:22:24.250Z,30.93
2023-04-09T01:25:04.460Z,20.20
2023-04-09T01:27:48.166Z,22.23
2023-04-09T01:30:18.924Z,16.90
2023-04-09T01:32:47.274Z,18.20
2023-04-09T01:35:15.657Z,19.77
2023-04-09T01:37:44.002Z,12.93
2023-04-09T01:40:13.050Z,11.83
2023-04-09T01:42:42.285Z,10.43
2023-04-09T01:45:13.355Z,9.83
2023-04-09T01:47:43.403Z,10.40
2023-04-09T01:50:11.874Z,34.33
2023-04-09T01:52:40.359Z,14.70
2023-04-09T01:55:09.257Z,15.70
2023-04-09T01:57:37.103Z,10.90
2023-04-09T02:00:06.722Z,11.47
2023-04-09T02:02:55.903Z,9.57
2023-04-09T02:05:30.133Z,11.83
2023-04-09T02:08:01.054Z,12.87
2023-04-09T02:10:32.679Z,12.33
2023-04-09T02:13:03.139Z,8.80
2023-04-09T02:15:33.475Z,9.40
2023-04-09T02:18:02.953Z,10.07
2023-04-09T02:20:30.902Z,8.37
2023-04-09T02:22:58.753Z,9.43
2023-04-09T02:25:27.706Z,9.87
2023-04-09T02:27:55.565Z,10.30
2023-04-09T02:30:23.653Z,9.70
2023-04-09T02:32:51.588Z,10.90
2023-04-09T02:35:20.844Z,9.63
2023-04-09T02:37:48.796Z,9.63
2023-04-09T02:40:16.705Z,8.87
2023-04-09T02:42:44.643Z,9.10
2023-04-09T02:45:12.668Z,9.67
2023-04-09T02:47:40.638Z,9.50
2023-04-09T02:50:09.608Z,9.30
2023-04-09T02:52:43.383Z,9.03
2023-04-09T02:55:11.424Z,9.33
2023-04-09T02:57:39.479Z,8.80
2023-04-09T03:00:08.654Z,9.40
2023-04-09T03:02:36.701Z,9.67
2023-04-09T03:05:05.384Z,9.47
2023-04-09T03:07:33.451Z,8.23
2023-04-09T03:10:02.708Z,9.47
2023-04-09T03:12:30.706Z,9.80
2023-04-09T03:14:58.621Z,11.33
2023-04-09T03:17:27.304Z,11.50
2023-04-09T03:19:55.555Z,11.27
2023-04-09T03:22:23.486Z,11.23
2023-04-09T03:24:53.978Z,9.70
2023-04-09T03:27:23.242Z,12.30
2023-04-09T03:29:56.909Z,12.13
2023-04-09T03:32:30.944Z,11.83
2023-04-09T03:34:59.078Z,11.17
2023-04-09T03:37:27.084Z,11.30
2023-04-09T03:39:55.553Z,13.80
2023-04-09T03:42:28.872Z,11.00
2023-04-09T03:44:57.183Z,11.97
2023-04-09T03:47:37.009Z,11.20
2023-04-09T03:50:06.271Z,11.77
2023-04-09T03:52:46.375Z,12.73
2023-04-09T03:55:14.436Z,10.10
2023-04-09T03:57:43.839Z,10.47
2023-04-09T04:00:16.341Z,10.47
2023-04-09T04:03:14.639Z,12.67
2023-04-09T04:06:06.696Z,11.17
2023-04-09T04:08:45.449Z,13.07
2023-04-09T04:11:13.633Z,11.60
2023-04-09T04:13:43.304Z,11.73
2023-04-09T04:16:11.941Z,11.77
2023-04-09T04:18:42.182Z,10.97
2023-04-09T04:21:14.452Z,11.63
2023-04-09T04:23:46.043Z,10.23
2023-04-09T04:26:19.418Z,12.00
2023-04-09T04:28:49.188Z,10.57
2023-04-09T04:31:28.737Z,10.97
2023-04-09T04:33:59.469Z,10.17
2023-04-09T04:36:27.891Z,10.70
2023-04-09T04:38:55.939Z,11.07
2023-04-09T04:41:43.544Z,10.63
2023-04-09T04:44:17.983Z,11.90
2023-04-09T04:46:46.072Z,11.43
2023-04-09T04:49:14.051Z,11.97
2023-04-09T04:51:49.149Z,11.40
2023-04-09T04:54:18.323Z,12.03
2023-04-09T04:56:51.244Z,11.67
2023-04-09T04:59:40.800Z,15.07
2023-04-09T05:02:11.108Z,18.00
2023-04-09T05:04:57.996Z,16.00
2023-04-09T05:07:35.024Z,13.20
2023-04-09T05:10:03.595Z,13.03
2023-04-09T05:12:37.652Z,13.00
2023-04-09T05:15:08.510Z,12.30
2023-04-09T05:17:38.608Z,12.53
2023-04-09T05:20:09.394Z,13.40
2023-04-09T05:22:49.391Z,12.90
2023-04-09T05:25:18.035Z,11.93
2023-04-09T05:27:46.035Z,13.23
2023-04-09T05:30:15.697Z,13.47
2023-04-09T05:32:43.759Z,13.13
2023-04-09T05:35:11.946Z,10.97
2023-04-09T05:37:44.140Z,12.33
2023-04-09T05:40:14.829Z,14.30
2023-04-09T05:42:43.192Z,13.60
2023-04-09T05:45:25.891Z,13.23
2023-04-09T05:47:54.555Z,10.93
2023-04-09T05:50:24.276Z,12.80
2023-04-09T05:52:55.116Z,12.40
2023-04-09T05:55:28.565Z,12.17
2023-04-09T05:58:00.842Z,13.47
2023-04-09T06:00:30.331Z,12.90
2023-04-09T06:02:58.381Z,12.60
2023-04-09T06:05:29.504Z,12.33
2023-04-09T06:07:57.462Z,13.23
2023-04-09T06:10:25.476Z,11.83
2023-04-09T06:12:54.008Z,12.20
2023-04-09T06:15:22.086Z,12.40
2023-04-09T06:17:51.396Z,14.23
2023-04-09T06:20:19.680Z,13.13
2023-04-09T06:22:47.599Z,12.13
2023-04-09T06:25:18.715Z,11.90
2023-04-09T06:27:46.664Z,12.20
2023-04-09T06:30:14.775Z,11.93
2023-04-09T06:32:53.263Z,13.03
2023-04-09T06:35:24.110Z,12.87
2023-04-09T06:37:52.044Z,12.53
2023-04-09T06:40:22.757Z,12.73
2023-04-09T06:42:51.184Z,11.77
2023-04-09T06:45:24.715Z,13.80
2023-04-09T06:47:52.667Z,12.57
2023-04-09T06:50:20.876Z,14.20
2023-04-09T06:52:50.305Z,13.17
2023-04-09T06:55:18.247Z,12.90
2023-04-09T06:57:46.171Z,11.17
2023-04-09T07:00:14.860Z,10.97
2023-04-09T07:02:43.256Z,11.67
2023-04-09T07:05:11.877Z,12.40
2023-04-09T07:07:39.978Z,12.07
2023-04-09T07:10:10.302Z,10.93
2023-04-09T07:12:38.220Z,12.40
2023-04-09T07:15:08.449Z,12.47
2023-04-09T07:17:36.499Z,11.17
2023-04-09T07:20:04.843Z,11.83
2023-04-09T07:22:32.829Z,11.10
2023-04-09T07:25:00.834Z,10.93
2023-04-09T07:27:30.456Z,13.13
2023-04-09T07:29:59.463Z,11.13
2023-04-09T07:32:28.948Z,11.77
2023-04-09T07:34:57.536Z,10.97
2023-04-09T07:37:26.086Z,9.60
2023-04-09T07:39:54.437Z,9.17
2023-04-09T07:42:22.780Z,9.40
2023-04-09T07:44:52.071Z,9.60
2023-04-09T07:47:20.329Z,8.83
2023-04-09T07:49:48.377Z,9.40
2023-04-09T07:52:16.404Z,8.80
2023-04-09T07:54:44.435Z,8.67
2023-04-09T07:57:12.447Z,9.33
2023-04-09T07:59:40.401Z,8.67
2023-04-09T08:02:11.650Z,8.57
2023-04-09T08:04:41.594Z,7.80
2023-04-09T08:07:09.621Z,7.40
2023-04-09T08:09:37.520Z,6.50
2023-04-09T08:12:05.817Z,7.47
2023-04-09T08:14:33.930Z,7.87
2023-04-09T08:17:02.076Z,7.67
2023-04-09T08:19:31.536Z,7.60
2023-04-09T08:21:59.468Z,7.83
2023-04-09T08:24:27.481Z,7.43
2023-04-09T08:26:56.888Z,6.87
2023-04-09T08:29:24.878Z,7.17
2023-04-09T08:31:53.043Z,7.63
2023-04-09T08:34:22.043Z,6.63
2023-04-09T08:36:51.497Z,8.40
2023-04-09T08:39:20.733Z,7.23
2023-04-09T08:41:49.179Z,6.77
2023-04-09T08:44:17.653Z,6.70
2023-04-09T08:46:45.615Z,6.63
2023-04-09T08:49:13.669Z,7.63
2023-04-09T08:51:47.289Z,7.43
2023-04-09T08:54:19.977Z,7.17
2023-04-09T08:56:48.184Z,8.50
2023-04-09T08:59:18.119Z,6.90
2023-04-09T09:01:47.951Z,7.13
2023-04-09T09:04:16.515Z,7.07
2023-04-09T09:06:44.888Z,6.17
2023-04-09T09:09:14.807Z,7.33
2023-04-09T09:11:45.518Z,7.23
2023-04-09T09:14:16.073Z,6.20
2023-04-09T09:16:46.200Z,5.07
2023-04-09T09:19:31.257Z,4.67
2023-04-09T09:22:00.156Z,5.77
2023-04-09T09:24:28.295Z,5.10
2023-04-09T09:26:58.819Z,6.03
2023-04-09T09:29:26.980Z,6.67
2023-04-09T09:31:56.598Z,8.77
2023-04-09T09:34:25.914Z,7.07
2023-04-09T09:36:54.131Z,7.53
2023-04-09T09:39:22.336Z,7.47
2023-04-09T09:42:09.393Z,7.63
2023-04-09T09:44:37.357Z,6.83
2023-04-09T09:47:05.611Z,6.47
2023-04-09T09:49:33.592Z,7.50
2023-04-09T09:52:03.887Z,8.07
2023-04-09T09:54:41.613Z,7.83
2023-04-09T09:57:13.592Z,7.40
2023-04-09T09:59:44.813Z,7.67
2023-04-09T10:02:20.558Z,6.60
2023-04-09T10:04:50.698Z,7.70
2023-04-09T10:07:20.425Z,7.63
2023-04-09T10:09:51.572Z,7.60
2023-04-09T10:12:23.764Z,7.23
2023-04-09T10:14:53.317Z,6.07
2023-04-09T10:17:21.711Z,5.93
2023-04-09T10:20:00.317Z,5.40
2023-04-09T10:22:33.284Z,5.20
2023-04-09T10:25:01.562Z,5.60
2023-04-09T10:27:31.121Z,7.13
2023-04-09T10:30:00.141Z,6.13
2023-04-09T10:32:28.801Z,5.80
2023-04-09T10:34:59.315Z,5.50
2023-04-09T10:37:29.872Z,4.50
2023-04-09T10:39:58.709Z,4.77
2023-04-09T10:42:34.140Z,4.70
2023-04-09T10:45:09.837Z,4.93
2023-04-09T10:47:39.425Z,4.47
2023-04-09T10:50:18.440Z,4.80
2023-04-09T10:52:46.722Z,4.30
2023-04-09T10:55:31.112Z,4.40
2023-04-09T10:58:00.507Z,4.40
2023-04-09T11:00:28.465Z,3.57
2023-04-09T11:03:14.289Z,3.93
2023-04-09T11:05:44.558Z,3.70
2023-04-09T11:08:13.739Z,4.17
2023-04-09T11:10:44.472Z,5.57
2023-04-09T11:13:14.216Z,4.77
2023-04-09T11:15:42.901Z,4.50
2023-04-09T11:18:11.971Z,4.33
2023-04-09T11:20:40.768Z,4.70
2023-04-09T11:23:08.951Z,4.53
2023-04-09T11:25:37.013Z,4.53
2023-04-09T11:28:06.190Z,4.60
2023-04-09T11:30:36.162Z,3.87
2023-04-09T11:33:04.263Z,3.47
2023-04-09T11:35:36.226Z,3.73
2023-04-09T11:38:09.235Z,4.60
2023-04-09T11:40:43.489Z,4.53
2023-04-09T11:43:11.432Z,4.30
2023-04-09T11:45:40.817Z,4.33
2023-04-09T11:48:08.920Z,4.43
2023-04-09T11:50:37.762Z,4.97
2023-04-09T11:53:17.572Z,5.70
2023-04-09T11:55:49.297Z,5.20
2023-04-09T11:58:17.654Z,4.90
2023-04-09T12:00:47.076Z,4.80
2023-04-09T12:03:16.269Z,4.50
2023-04-09T12:05:50.956Z,4.40
2023-04-09T12:08:24.855Z,4.90
2023-04-09T12:10:53.950Z,4.57
2023-04-09T12:13:22.648Z,4.53
2023-04-09T12:15:52.535Z,4.37
2023-04-09T12:18:23.424Z,4.57
2023-04-09T12:20:51.620Z,4.50
2023-04-09T12:23:19.471Z,4.40
2023-04-09T12:25:48.098Z,4.53
2023-04-09T12:28:18.272Z,3.90
2023-04-09T12:30:46.876Z,4.50
2023-04-09T12:33:16.243Z,4.83
2023-04-09T12:35:44.261Z,4.73
2023-04-09T12:38:12.284Z,4.13
2023-04-09T12:40:40.576Z,5.10
2023-04-09T12:43:08.460Z,4.57
2023-04-09T12:45:36.570Z,4.73
2023-04-09T12:48:04.738Z,4.70
2023-04-09T12:50:34.108Z,4.43
2023-04-09T12:53:02.081Z,3.93
2023-04-09T12:55:30.048Z,4.47
2023-04-09T12:57:59.174Z,4.00
2023-04-09T13:00:30.794Z,3.87
2023-04-09T13:02:58.954Z,4.67
2023-04-09T13:05:26.935Z,4.90
2023-04-09T13:07:56.519Z,4.70
2023-04-09T13:10:24.476Z,4.27
2023-04-09T13:12:52.628Z,4.10
2023-04-09T13:15:21.012Z,4.00
2023-04-09T13:17:49.491Z,3.90
2023-04-09T13:20:17.564Z,4.30
2023-04-09T13:22:48.631Z,4.23
2023-04-09T13:25:18.029Z,4.90
2023-04-09T13:27:46.021Z,4.17
2023-04-09T13:30:14.077Z,4.20
2023-04-09T13:32:42.253Z,4.67
2023-04-09T13:35:11.469Z,4.20
2023-04-09T13:37:39.468Z,3.93
2023-04-09T13:40:09.432Z,5.77
2023-04-09T13:42:38.729Z,3.40
2023-04-09T13:45:07.855Z,3.70
2023-04-09T13:47:36.070Z,3.80
2023-04-09T13:50:04.528Z,4.20
2023-04-09T13:52:32.987Z,3.73
2023-04-09T13:55:01.184Z,3.90
2023-04-09T13:57:29.167Z,4.37
2023-04-09T14:00:01.774Z,4.00
2023-04-09T14:02:33.123Z,4.20
2023-04-09T14:05:02.433Z,3.93
2023-04-09T14:07:30.766Z,4.07
2023-04-09T14:09:58.849Z,3.67
2023-04-09T14:12:26.870Z,3.77
2023-04-09T14:14:56.316Z,3.97
2023-04-09T14:17:25.773Z,3.90
2023-04-09T14:19:53.775Z,4.37
2023-04-09T14:22:21.781Z,3.87
2023-04-09T14:24:50.017Z,4.57
2023-04-09T14:27:18.016Z,4.00
2023-04-09T14:29:46.130Z,6.10
2023-04-09T14:32:14.425Z,3.73
2023-04-09T14:34:43.744Z,3.75
2023-04-09T14:37:12.318Z,4.20
2023-04-09T14:39:40.258Z,4.40
2023-04-09T14:42:08.234Z,4.70
2023-04-09T14:44:36.181Z,4.03
2023-04-09T14:47:04.306Z,4.50
2023-04-09T14:49:32.318Z,4.73
2023-04-09T14:52:01.703Z,4.57
2023-04-09T14:54:31.285Z,4.73
2023-04-09T14:56:59.325Z,4.93
2023-04-09T14:59:27.510Z,4.83
2023-04-09T15:01:55.726Z,5.03
2023-04-09T15:04:23.866Z,4.90
2023-04-09T15:06:52.174Z,6.13
2023-04-09T15:09:21.502Z,5.40
2023-04-09T15:11:49.398Z,6.20
2023-04-09T15:14:17.221Z,5.63
2023-04-09T15:16:45.297Z,5.10
2023-04-09T15:19:13.227Z,5.07
2023-04-09T15:21:41.479Z,5.33
2023-04-09T15:24:09.432Z,6.07
2023-04-09T15:26:38.705Z,5.43
2023-04-09T15:29:08.658Z,5.40
2023-04-09T15:31:39.028Z,5.10
2023-04-09T15:34:08.200Z,7.40
2023-04-09T15:36:36.169Z,6.10
2023-04-09T15:39:05.006Z,5.70
2023-04-09T15:41:33.765Z,5.20
2023-04-09T15:44:03.150Z,5.60
2023-04-09T15:46:31.537Z,15.80
2023-04-09T15:48:59.492Z,29.00
2023-04-09T15:51:27.661Z,15.60
2023-04-09T15:53:55.553Z,5.00
2023-04-09T15:56:23.466Z,4.93
2023-04-09T15:58:51.576Z,4.57
2023-04-09T16:01:21.054Z,4.70
2023-04-09T16:03:52.453Z,4.93
2023-04-09T16:06:21.069Z,5.07
2023-04-09T16:08:49.186Z,5.20
2023-04-09T16:11:17.203Z,5.23
2023-04-09T16:13:45.245Z,5.00
2023-04-09T16:16:13.273Z,5.20
2023-04-09T16:18:42.696Z,4.90
2023-04-09T16:21:11.201Z,5.00
2023-04-09T16:23:39.692Z,5.00
2023-04-09T16:26:08.283Z,5.20
2023-04-09T16:28:36.296Z,5.37
2023-04-09T16:31:04.284Z,12.67
2023-04-09T16:33:32.843Z,9.40
2023-04-09T16:36:02.260Z,6.10
2023-04-09T16:38:31.216Z,5.33
2023-04-09T16:40:59.390Z,6.10
2023-04-09T16:43:27.380Z,6.10
2023-04-09T16:45:55.510Z,6.10
2023-04-09T16:48:24.052Z,4.97
2023-04-09T16:50:52.101Z,5.60
2023-04-09T16:53:21.413Z,5.57
2023-04-09T16:55:49.947Z,5.73
2023-04-09T16:58:18.125Z,4.70
2023-04-09T17:00:47.195Z,5.27
2023-04-09T17:03:16.372Z,5.27
2023-04-09T17:05:49.472Z,4.77
2023-04-09T17:08:17.926Z,5.03
2023-04-09T17:10:47.348Z,5.57
2023-04-09T17:13:15.275Z,5.43
2023-04-09T17:15:43.305Z,4.67
2023-04-09T17:18:11.529Z,5.27
2023-04-09T17:20:39.532Z,6.03
2023-04-09T17:23:07.663Z,5.73
2023-04-09T17:25:35.701Z,4.87
2023-04-09T17:28:05.944Z,6.47
2023-04-09T17:30:35.159Z,5.33
2023-04-09T17:33:03.195Z,5.93
2023-04-09T17:35:31.205Z,7.33
2023-04-09T17:37:59.264Z,5.23
2023-04-09T17:40:28.779Z,5.20
2023-04-09T17:42:57.192Z,5.97
2023-04-09T17:45:26.606Z,6.63
2023-04-09T17:47:55.308Z,5.93
2023-04-09T17:50:23.246Z,5.57
2023-04-09T17:52:51.222Z,5.23
2023-04-09T17:55:19.259Z,5.57
2023-04-09T17:57:47.377Z,5.20
2023-04-09T18:00:16.052Z,6.13
2023-04-09T18:02:49.013Z,4.80
2023-04-09T18:05:17.523Z,5.53
2023-04-09T18:07:45.828Z,5.70
2023-04-09T18:10:13.755Z,5.97
2023-04-09T18:12:41.801Z,6.07
2023-04-09T18:15:10.981Z,5.53
2023-04-09T18:17:39.078Z,5.53
2023-04-09T18:20:09.358Z,5.87
2023-04-09T18:22:38.239Z,5.20
2023-04-09T18:25:07.137Z,7.37
2023-04-09T18:27:35.245Z,6.07
2023-04-09T18:30:03.718Z,6.10
2023-04-09T18:32:32.412Z,5.70
2023-04-09T18:35:01.000Z,5.90
2023-04-09T18:37:30.408Z,6.23
2023-04-09T18:40:00.220Z,5.43
2023-04-09T18:42:29.906Z,5.53
2023-04-09T18:44:57.773Z,5.87
2023-04-09T18:47:25.971Z,5.93
2023-04-09T18:49:54.109Z,6.03
2023-04-09T18:52:22.115Z,6.63
2023-04-09T18:54:51.434Z,6.20
2023-04-09T18:57:20.056Z,7.30
2023-04-09T18:59:48.221Z,5.70
2023-04-09T19:02:19.152Z,7.07
2023-04-09T19:04:47.672Z,6.10
2023-04-09T19:07:15.772Z,5.97
2023-04-09T19:09:44.528Z,8.77
2023-04-09T19:12:13.777Z,6.20
2023-04-09T19:14:41.773Z,6.80
2023-04-09T19:17:10.095Z,7.47
2023-04-09T19:19:38.133Z,5.37
2023-04-09T19:22:06.075Z,6.90
2023-04-09T19:24:34.170Z,6.60
2023-04-09T19:27:07.985Z,6.17
2023-04-09T19:29:37.418Z,6.40
2023-04-09T19:32:05.829Z,6.07
2023-04-09T19:34:33.794Z,7.90
2023-04-09T19:37:02.517Z,6.90
2023-04-09T19:39:31.029Z,6.93
2023-04-09T19:41:59.027Z,6.93
2023-04-09T19:44:26.961Z,7.33
2023-04-09T19:46:56.493Z,6.30
2023-04-09T19:49:24.525Z,8.63
2023-04-09T19:51:52.485Z,6.40
2023-04-09T19:54:20.399Z,7.40
2023-04-09T19:56:48.326Z,6.17
2023-04-09T19:59:16.705Z,6.60
2023-04-09T20:01:44.745Z,8.13
2023-04-09T20:04:14.264Z,8.70
2023-04-09T20:06:43.908Z,7.27
2023-04-09T20:09:13.429Z,10.63
2023-04-09T20:11:42.121Z,11.57
2023-04-09T20:14:11.288Z,9.97
2023-04-09T20:16:39.356Z,10.30
2023-04-09T20:19:07.496Z,10.23
2023-04-09T20:21:37.168Z,8.53
2023-04-09T20:24:05.568Z,7.30
2023-04-09T20:26:33.545Z,9.37
2023-04-09T20:29:01.752Z,7.43
2023-04-09T20:31:30.940Z,6.47
2023-04-09T20:33:58.910Z,6.07
2023-04-09T20:36:26.897Z,8.37
2023-04-09T20:38:56.348Z,8.63
2023-04-09T20:41:24.199Z,9.80
2023-04-09T20:43:52.117Z,7.97
2023-04-09T20:46:20.236Z,7.83
2023-04-09T20:48:48.260Z,8.00
2023-04-09T20:51:16.192Z,9.27
2023-04-09T20:53:45.410Z,10.30
2023-04-09T20:56:14.836Z,10.73
2023-04-09T20:58:42.873Z,8.30
2023-04-09T21:01:10.807Z,8.63
2023-04-09T21:03:39.979Z,7.90
2023-04-09T21:06:09.318Z,9.00
2023-04-09T21:08:38.441Z,9.10
2023-04-09T21:11:06.708Z,8.63
2023-04-09T21:13:53.216Z,9.87
2023-04-09T21:16:23.369Z,9.10
2023-04-09T21:18:51.837Z,8.17
2023-04-09T21:21:19.964Z,8.93
2023-04-09T21:23:47.927Z,8.23
2023-04-09T21:26:15.899Z,10.83
2023-04-09T21:28:45.869Z,10.13
2023-04-09T21:31:15.810Z,7.73
2023-04-09T21:33:44.059Z,7.93
2023-04-09T21:36:12.290Z,8.57
2023-04-09T21:38:40.447Z,8.00
2023-04-09T21:41:08.606Z,7.57
2023-04-09T21:43:38.335Z,8.70
2023-04-09T21:46:08.008Z,9.07
2023-04-09T21:48:37.246Z,8.27
2023-04-09T21:51:10.374Z,7.57
2023-04-09T21:53:38.367Z,7.07
2023-04-09T21:56:06.862Z,8.33
2023-04-09T21:58:34.824Z,9.17
2023-04-09T22:01:02.826Z,9.23
2023-04-09T22:03:32.664Z,8.47
2023-04-09T22:06:00.695Z,8.23
2023-04-09T22:08:29.557Z,9.33
2023-04-09T22:10:57.509Z,8.93
2023-04-09T22:13:25.555Z,8.37
2023-04-09T22:15:53.530Z,8.73
2023-04-09T22:18:21.873Z,8.47
2023-04-09T22:20:51.202Z,8.80
2023-04-09T22:23:19.186Z,9.13
2023-04-09T22:25:47.269Z,9.30
2023-04-09T22:28:15.272Z,9.13
2023-04-09T22:30:43.307Z,9.90
2023-04-09T22:33:11.192Z,10.23
2023-04-09T22:35:39.136Z,8.47
2023-04-09T22:38:08.469Z,8.17
2023-04-09T22:40:36.436Z,7.60
2023-04-09T22:43:04.420Z,7.93
2023-04-09T22:45:32.521Z,9.43
2023-04-09T22:48:00.697Z,8.60
2023-04-09T22:50:28.962Z,7.53
2023-04-09T22:52:56.881Z,8.50
2023-04-09T22:55:26.356Z,9.57
2023-04-09T22:57:54.966Z,8.10
2023-04-09T23:00:23.344Z,7.73
2023-04-09T23:02:51.679Z,9.47
2023-04-09T23:05:19.798Z,9.10
2023-04-09T23:07:48.154Z,9.00
2023-04-09T23:10:17.373Z,8.67
2023-04-09T23:12:46.721Z,9.13
2023-04-09T23:15:14.639Z,8.10
2023-04-09T23:17:42.859Z,9.83
2023-04-09T23:20:14.687Z,8.97
2023-04-09T23:22:43.038Z,10.03
2023-04-09T23:25:11.233Z,14.93
2023-04-09T23:27:39.200Z,15.80
2023-04-09T23:30:10.265Z,16.17
2023-04-09T23:32:38.242Z,12.70
2023-04-09T23:35:07.029Z,10.67
2023-04-09T23:37:35.059Z,8.83
2023-04-09T23:40:03.419Z,11.47
2023-04-09T23:42:33.040Z,11.67
2023-04-09T23:45:04.047Z,11.80
2023-04-09T23:47:34.961Z,12.37
2023-04-09T23:50:04.965Z,9.37
2023-04-09T23:52:34.340Z,9.63
2023-04-09T23:55:02.677Z,8.87
2023-04-09T23:57:30.672Z,9.90
2023-04-09T23:59:58.843Z,10.47
